Ringsted, Denmark
Current Conditions -  °F | °C
As of 6:20 AM on Friday 31 Oct 2014 (Local Time) from EKRK Reporting Station
Overcast Overcast  
Wind Chill: 45°   Ceiling: 4300
Heat Index: 48°   Visibility: 5mi
Dew Point: 46°   Wind: 7mph
Humidity: 93%   Direction: 140°SE
Pressure: 30.21"   Gusts: NA
Location:  55.44°N, 11.79°E
Report Text: EKRK 310520Z AUTO 14006KT 8000NDV FEW024/// OVC043///09/08 Q1023
Loading
Personal Weather Stations






























Interactive Weather Map
Tropical Storm Tracking
New forecast layout! Learn more

10-Day Weather Forecast

Advertisements
Track Severe Weather on mobile